Rachel Carson — WDF9370 — position and weather

sailwx.info

Track history (hours):
 
Tides and Currents Weather Stations Pressure Air Temp Water Temp Dewpoint Dewpoint Depression Visibility Wind Speed Wind Dir Waves Ship Positions

Oceanographic research ship Rachel Carson (USA)

Owner: Monterey Bay Aquarium Research Institute, Moss Landing, CA. More information available from US FCC via Universal Licensing System and Coast Guard Vessel Documentation Center.

Last reported at 2017-Sep-14 21:24 UTC. Time now 2017-Sep-26 18:10 UTC.
Position N 36°42' W 122°00'.
Warning: this ship's position is 11 days out of date.

Length 42 m; draft 3 m.

Type: Dredging. MMSI: 338415000.

Date/timePositionNaut miles runAvg speedWind from/ knotsBaromVisibWave heightAir tempDewpointWater temp
2017-Sep-14 21:24N 36°42' W 122°00'3 8.1
2017-Sep-14 21:00N 36°43' W 122°04'3 5.8
2017-Sep-14 20:30N 36°45' W 122°06'0 0.3
2017-Sep-14 20:01N 36°45' W 122°06'2 4.0
2017-Sep-14 19:30N 36°43' W 122°05'1 2.7
2017-Sep-14 19:01N 36°42' W 122°03'0 0.1
2017-Sep-14 18:30N 36°42' W 122°03'0 0.2
2017-Sep-14 18:00N 36°42' W 122°04'0 0.1
2017-Sep-14 17:30N 36°42' W 122°03'0 0.3
2017-Sep-14 17:00N 36°42' W 122°04'0 0.1
2017-Sep-14 16:30N 36°42' W 122°04'4 0.2
2017-Sep-13 21:57N 36°46' W 122°01'510.3
2017-Sep-13 21:30N 36°45' W 122°07'1 1.1
2017-Sep-13 21:00N 36°45' W 122°07'0 0.1
2017-Sep-13 20:30N 36°45' W 122°07'0 0.4
2017-Sep-13 19:59N 36°45' W 122°07'0 0.0
2017-Sep-13 19:30N 36°45' W 122°07'0 0.2
2017-Sep-13 19:01N 36°45' W 122°07'0 0.1
2017-Sep-13 18:30N 36°45' W 122°07'0 0.1
2017-Sep-13 18:00N 36°45' W 122°07'0 0.4
2017-Sep-13 17:30N 36°45' W 122°07'0 0.3
2017-Sep-13 17:01N 36°45' W 122°07'0 0.1
2017-Sep-13 16:29N 36°45' W 122°07'0 0.5
2017-Sep-13 16:00N 36°45' W 122°07'4 0.2
2017-Sep-12 21:54N 36°43' W 122°02'2 4.6
2017-Sep-12 21:30N 36°42' W 122°04'0 0.2
2017-Sep-12 20:54N 36°43' W 122°04'0 0.3
2017-Sep-12 20:30N 36°42' W 122°04'0 0.1
2017-Sep-12 19:59N 36°42' W 122°04'0 0.3
2017-Sep-12 19:30N 36°42' W 122°03'0 0.2
2017-Sep-12 18:56N 36°42' W 122°03'0 0.3
2017-Sep-12 18:26N 36°42' W 122°03'0 0.2
2017-Sep-12 18:00N 36°42' W 122°03'0 0.4
2017-Sep-12 17:30N 36°42' W 122°03'0 0.2
2017-Sep-12 16:58N 36°42' W 122°03'0 0.0
2017-Sep-12 16:30N 36°42' W 122°03'0 0.6
2017-Sep-12 16:00N 36°42' W 122°03'  
2017-Sep-07 22:00N 36°45' W 122°00'1 1.5
2017-Sep-07 21:30N 36°45' W 122°01'0 0.5
2017-Sep-07 20:56N 36°45' W 122°00'0 0.3
2017-Sep-07 20:30N 36°45' W 122°01'0 0.1
2017-Sep-07 20:00N 36°45' W 122°01'0 0.0
2017-Sep-07 19:30N 36°45' W 122°01'0 0.3
2017-Sep-07 18:56N 36°44' W 122°01'0 0.3
2017-Sep-07 18:30N 36°44' W 122°01'0 0.1
2017-Sep-07 18:00N 36°44' W 122°01'0 0.1
2017-Sep-07 17:30N 36°44' W 122°01'0 0.3
2017-Sep-07 16:56N 36°44' W 122°01'0 0.2
2017-Sep-07 16:26N 36°44' W 122°01'0 0.0
2017-Sep-07 16:00N 36°44' W 122°01'0 0.0
2017-Sep-06 21:55N 36°45' W 122°01'0 0.5
2017-Sep-06 21:28N 36°45' W 122°01'0 0.4
2017-Sep-06 21:00N 36°45' W 122°01'0 0.3
2017-Sep-06 19:37N 36°44' W 122°01'0 0.1
2017-Sep-06 19:30N 36°44' W 122°01'0 0.0
2017-Sep-06 18:53N 36°44' W 122°01'0 0.2
2017-Sep-06 18:25N 36°44' W 122°01'0 0.0
2017-Sep-06 17:17N 36°44' W 122°01'0 0.3
2017-Sep-06 16:57N 36°44' W 122°01'  
Track history (hours):
 
Tides and Currents Weather Stations Pressure Air Temp Water Temp Dewpoint Dewpoint Depression Visibility Wind Speed Wind Dir Waves Ship Positions

Oceanographic research ship Rachel Carson (USA)

Owner: Monterey Bay Aquarium Research Institute, Moss Landing, CA. More information available from US FCC via Universal Licensing System and Coast Guard Vessel Documentation Center.

Last reported at 2017-Sep-14 21:24 UTC. Time now 2017-Sep-26 18:10 UTC.
Position N 36°42' W 122°00'.
Warning: this ship's position is 11 days out of date.

Length 42 m; draft 3 m.

Type: Dredging. MMSI: 338415000.

Date/timePositionNaut miles runAvg speedWind from/ knotsBaromVisibWave heightAir tempDewpointWater temp
2017-Sep-14 21:24N 36°42' W 122°00'3 8.1
2017-Sep-14 21:00N 36°43' W 122°04'3 5.8
2017-Sep-14 20:30N 36°45' W 122°06'0 0.3
2017-Sep-14 20:01N 36°45' W 122°06'2 4.0
2017-Sep-14 19:30N 36°43' W 122°05'1 2.7
2017-Sep-14 19:01N 36°42' W 122°03'0 0.1
2017-Sep-14 18:30N 36°42' W 122°03'0 0.2
2017-Sep-14 18:00N 36°42' W 122°04'0 0.1
2017-Sep-14 17:30N 36°42' W 122°03'0 0.3
2017-Sep-14 17:00N 36°42' W 122°04'0 0.1
2017-Sep-14 16:30N 36°42' W 122°04'4 0.2
2017-Sep-13 21:57N 36°46' W 122°01'510.3
2017-Sep-13 21:30N 36°45' W 122°07'1 1.1
2017-Sep-13 21:00N 36°45' W 122°07'0 0.1
2017-Sep-13 20:30N 36°45' W 122°07'0 0.4
2017-Sep-13 19:59N 36°45' W 122°07'0 0.0
2017-Sep-13 19:30N 36°45' W 122°07'0 0.2
2017-Sep-13 19:01N 36°45' W 122°07'0 0.1
2017-Sep-13 18:30N 36°45' W 122°07'0 0.1
2017-Sep-13 18:00N 36°45' W 122°07'0 0.4
2017-Sep-13 17:30N 36°45' W 122°07'0 0.3
2017-Sep-13 17:01N 36°45' W 122°07'0 0.1
2017-Sep-13 16:29N 36°45' W 122°07'0 0.5
2017-Sep-13 16:00N 36°45' W 122°07'4 0.2
2017-Sep-12 21:54N 36°43' W 122°02'2 4.6
2017-Sep-12 21:30N 36°42' W 122°04'0 0.2
2017-Sep-12 20:54N 36°43' W 122°04'0 0.3
2017-Sep-12 20:30N 36°42' W 122°04'0 0.1
2017-Sep-12 19:59N 36°42' W 122°04'0 0.3
2017-Sep-12 19:30N 36°42' W 122°03'0 0.2
2017-Sep-12 18:56N 36°42' W 122°03'0 0.3
2017-Sep-12 18:26N 36°42' W 122°03'0 0.2
2017-Sep-12 18:00N 36°42' W 122°03'0 0.4
2017-Sep-12 17:30N 36°42' W 122°03'0 0.2
2017-Sep-12 16:58N 36°42' W 122°03'0 0.0
2017-Sep-12 16:30N 36°42' W 122°03'0 0.6
2017-Sep-12 16:00N 36°42' W 122°03'  
2017-Sep-07 22:00N 36°45' W 122°00'1 1.5
2017-Sep-07 21:30N 36°45' W 122°01'0 0.5
2017-Sep-07 20:56N 36°45' W 122°00'0 0.3
2017-Sep-07 20:30N 36°45' W 122°01'0 0.1
2017-Sep-07 20:00N 36°45' W 122°01'0 0.0
2017-Sep-07 19:30N 36°45' W 122°01'0 0.3
2017-Sep-07 18:56N 36°44' W 122°01'0 0.3
2017-Sep-07 18:30N 36°44' W 122°01'0 0.1
2017-Sep-07 18:00N 36°44' W 122°01'0 0.1
2017-Sep-07 17:30N 36°44' W 122°01'0 0.3
2017-Sep-07 16:56N 36°44' W 122°01'0 0.2
2017-Sep-07 16:26N 36°44' W 122°01'0 0.0
2017-Sep-07 16:00N 36°44' W 122°01'0 0.0
2017-Sep-06 21:55N 36°45' W 122°01'0 0.5
2017-Sep-06 21:28N 36°45' W 122°01'0 0.4
2017-Sep-06 21:00N 36°45' W 122°01'0 0.3
2017-Sep-06 19:37N 36°44' W 122°01'0 0.1
2017-Sep-06 19:30N 36°44' W 122°01'0 0.0
2017-Sep-06 18:53N 36°44' W 122°01'0 0.2
2017-Sep-06 18:25N 36°44' W 122°01'0 0.0
2017-Sep-06 17:17N 36°44' W 122°01'0 0.3
2017-Sep-06 16:57N 36°44' W 122°01'  

Dump ship's entire track history